Portada
METAR-TAF:

METAR-TAF

Aeroports :

Kulob, Tadjikistan

latitud: 37-59-18N, longitud: 069-48-18E, altitud: 699 m

Observació

L'informe es va fer fa 37 minuts, a les 03:30 UTC
Vent 4 kt del Nord/Nord-Est
Temperatura 1°C
Humitat 86%
Pressió 1025 hPa
Visibilitat: 6000 m

METAR: UTDK 200330Z 02002MPS 6000 NSC 01/M01 Q1025 R01/09//70 RMK QFE711/0948

Hora: 09:07 (04:07 UTC)

Pronòstic

L'informe es va fer fa 1 hora i 7 minuts, a les 03:00 UTC
Pronòstic vàlid del 20 a les 04 UTC al 20 a les 13 UTC
Vent 4 kt amb direcció variable
Visibilitat: 5000 m
Núvols disperses a una alçada de 6000 ft
Cel ennuvolat a una alçada de 10000 ft
boirina
Temporalment
l' 20 a les 07 UTC al 20 a les 13 UTC
Vent 10 kt del Sud/Sud-Oest

TAF: UTDK 200300Z 2004/2013 VRB02MPS 5000 BR SCT060 BKN100 TEMPO 2007/2013 21005MPS

Observacions i pronòstics meteorològics de més de 4000 aeroports (METAR i TAF).

Les estacions disponibles són els punts grocs i vermells al mapa.

Posi el ratolí al punt desitjat per veure el nom de l'estació.

Feu clic per veure les observacions i els pronòstics meteorològics.

Per canviar el mapa: feu clic els botons verds amb una creu de color negre per apropar; al botó verd amb un guió per allunyar la imatge; o en les fletxes verdes per a mapes adjacents.


METAR-TAF: